KSNS/SNS METAR and TAF weather

Enter ICAO airport designator
Station Type Date Time Source
KSNS METAR 2021/10/20 06:53 UTC NOAA

KSNS 200653Z AUTO 15003KT 10SM OVC095 13/09 A3003 RMK AO2 SLP178 T01280094


Station Type Date Time Source
KSNS Decoded METAR 2021/10/20 06:53 UTC NOAA

SALINAS MUNICIPAL AIRPORT, CA, United States (KSNS) 36-40N 121-36W 30M
Oct 20, 2021 - 02:53 AM EDT / 2021.10.20 0653 UTC
Wind: from the SSE (150 degrees) at 3 MPH (3 KT):0
Visibility: 10 mile(s):0
Sky conditions: overcast
Temperature: 55.0 F (12.8 C)
Dew Point: 48.9 F (9.4 C)
Relative Humidity: 79%
Pressure (altimeter): 30.03 in. Hg (1016 hPa)
ob: KSNS 200653Z AUTO 15003KT 10SM OVC095 13/09 A3003 RMK AO2 SLP178 T01280094
cycle: 7

Station Type Date Time Source
KSNS TAF 2021/10/20 06:30 UTC NOAA

TAF KSNS 200527Z 2006/2106 15011KT P6SM SCT080 BKN150
FM201100 13016KT P6SM VCSH SCT030 BKN050 OVC080
FM202200 01009KT P6SM VCSH FEW030 BKN050 OVC100
FM210400 13006KT P6SM VCSH SCT028 OVC050

Example: see airport list